Nearby METAR Reports

 

EGKB - Biggin Hill, United Kingdom
Distance from station: S 5mi, 8km
Updated: 30/08/2015 19:20
NOT Current
Haze, Mostly cloudy
Haze, Mostly cloudy
 Wind from NNE
Wind: NNE 9 mph , 15 km/h
Temperature: 17°C
Dew Point: 14°C
Humidity: 83%
Barometer: 1017 hPa
Summary: Haze
Clouds: Mostly cloudy
Visibility: 3 miles , 5 km
Cloud details: Mostly cloudy 274 m
2015/08/30 18:20 EGKB 301820Z 03008KT 5000 HZ BKN009 17/14 Q1017
EGLC - London City Airp, United Kingdom
Distance from station: NNE 8mi, 13km
Updated: 31/08/2015 03:20
Mostly cloudy
Mostly cloudy
 Wind from NNE
Wind: NNE 5 mph , 7 km/h
Temperature: 16°C
Dew Point: 14°C
Humidity: 88%
Barometer: 1014 hPa
Clouds: Mostly cloudy
Visibility: 6 miles , 10 km
Cloud details: Few Clouds 213 m
Mostly cloudy 305 m
2015/08/31 02:20 EGLC 310220Z AUTO 03004KT 340V070 9999 FEW007/// BKN010/// 16/14 Q1014 RERA
 
EGKK - London/Gatwick A, United Kingdom
Distance from station: SSW 19mi, 31km
Updated: 31/08/2015 03:20
Mostly cloudy
Mostly cloudy
 Wind from NNE
Wind: NNE 5 mph , 7 km/h
Temperature: 15°C
Dew Point: 15°C
Humidity: 100%
Barometer: 1014 hPa
Clouds: Mostly cloudy
Visibility: 6 miles , 10 km
Cloud details: Mostly cloudy 244 m
2015/08/31 02:20 EGKK 310220Z 02004KT 9999 BKN008 15/15 Q1014
EGLL - London/Heathrow, United Kingdom
Distance from station: WNW 21mi, 33km
Updated: 31/08/2015 03:20
Light rain, Mostly cloudy
Light rain, Mostly cloudy
 Wind from NE
Wind: NE 5 mph , 7 km/h
Temperature: 15°C
Dew Point: 14°C
Humidity: 94%
Barometer: 1014 hPa
Summary: Light rain
Clouds: Mostly cloudy
Visibility: 6 miles , 9 km
Cloud details: Few Clouds 213 m
Mostly cloudy 305 m
2015/08/31 02:20 EGLL 310220Z 04004KT 360V060 9000 -RA FEW007 BKN010 15/14 Q1014